Time;durP1;ratioP1;P1;durP2;ratioP2;P2;SDS_P1;SDS_P2;PMS_P1;PMS_P2;Temp;Humidity;BMP_temperature;BMP_pressure;BME280_temperature;BME280_humidity;BME280_pressure;Samples;Min_cycle;Max_cycle;Signal;HPM_P1;HPM_P2
2023/09/10 00:00:02;;;;;;;17.77;10.93;;;;;;;23.98;55.43;101323.41;5030929;28;98771;-70
2023/09/10 00:02:28;;;;;;;20.30;10.95;;;;;;;23.95;55.50;101326.38;5032383;27;96764;-70
2023/09/10 00:04:56;;;;;;;20.50;11.82;;;;;;;24.09;54.89;101319.84;5031886;28;96804;-71
2023/09/10 00:07:23;;;;;;;14.30;11.23;;;;;;;23.96;55.56;101327.25;5032378;28;98925;-71
2023/09/10 00:09:50;;;;;;;13.63;10.18;;;;;;;23.86;55.91;101327.13;5035040;27;99372;-70
2023/09/10 00:12:16;;;;;;;21.58;11.10;;;;;;;23.75;56.94;101325.31;5031709;28;96774;-70
2023/09/10 00:14:42;;;;;;;19.83;11.40;;;;;;;23.84;56.88;101326.38;5031376;28;96928;-70
2023/09/10 00:17:09;;;;;;;15.52;11.07;;;;;;;23.88;56.59;101322.47;5030557;28;99368;-70
2023/09/10 00:19:35;;;;;;;16.27;10.80;;;;;;;23.86;56.65;101324.44;5031249;28;99270;-70
2023/09/10 00:22:04;;;;;;;19.75;11.52;;;;;;;23.75;56.86;101321.75;5031640;28;96870;-70
2023/09/10 00:24:30;;;;;;;22.63;11.40;;;;;;;23.66;57.12;101322.50;5032412;28;96996;-71
2023/09/10 00:26:56;;;;;;;16.30;11.45;;;;;;;23.67;56.92;101316.97;5031137;28;99466;-71
2023/09/10 00:29:23;;;;;;;21.08;11.88;;;;;;;23.69;57.04;101319.56;5031206;28;98870;-71
2023/09/10 00:31:49;;;;;;;18.02;11.60;;;;;;;23.57;57.65;101315.13;5031456;27;97832;-70
2023/09/10 00:34:16;;;;;;;17.38;12.38;;;;;;;23.59;57.62;101316.72;5031689;28;96832;-71
2023/09/10 00:36:42;;;;;;;20.42;12.07;;;;;;;23.62;57.27;101310.25;5031269;28;99296;-71
2023/09/10 00:39:10;;;;;;;17.58;10.45;;;;;;;23.57;57.55;101309.72;5031005;28;98698;-70
2023/09/10 00:41:36;;;;;;;17.40;11.27;;;;;;;23.63;57.34;101314.66;5030531;28;96706;-71
2023/09/10 00:44:03;;;;;;;16.90;11.38;;;;;;;23.61;57.34;101308.53;5031294;28;100481;-71
2023/09/10 00:46:30;;;;;;;14.90;10.90;;;;;;;23.57;57.57;101313.28;5031199;27;99303;-71
2023/09/10 00:48:57;;;;;;;17.63;12.48;;;;;;;23.58;58.16;101315.00;5030746;28;98821;-70
2023/09/10 00:51:24;;;;;;;20.88;11.88;;;;;;;23.54;58.63;101312.69;5031460;28;96837;-70
2023/09/10 00:53:51;;;;;;;17.95;11.50;;;;;;;23.44;58.71;101313.41;5031177;28;96979;-70
2023/09/10 00:56:20;;;;;;;17.38;12.75;;;;;;;23.30;59.67;101312.81;5031157;28;102281;-70
2023/09/10 00:58:47;;;;;;;21.02;12.13;;;;;;;23.36;59.77;101315.88;5031485;28;98830;-70
2023/09/10 01:01:15;;;;;;;17.65;11.70;;;;;;;23.26;60.62;101322.97;5031113;28;96998;-70
2023/09/10 01:03:42;;;;;;;20.02;11.95;;;;;;;23.36;60.63;101320.41;5031569;28;97094;-70
2023/09/10 01:06:09;;;;;;;18.05;12.10;;;;;;;23.45;60.18;101320.50;5030444;28;98930;-70
2023/09/10 01:08:35;;;;;;;15.45;11.93;;;;;;;23.45;59.50;101315.13;5030944;28;99037;-72
2023/09/10 01:11:09;;;;;;;15.38;11.55;;;;;;;23.41;59.32;101320.88;5030397;28;96778;-72
2023/09/10 01:13:45;;;;;;;17.63;11.32;;;;;;;23.35;59.05;101324.94;5031730;28;96815;-70
2023/09/10 01:16:17;;;;;;;20.77;12.15;;;;;;;23.38;58.75;101323.81;5030702;27;98635;-71
2023/09/10 01:18:47;;;;;;;17.50;11.80;;;;;;;23.52;58.26;101323.59;5030896;28;99267;-70
2023/09/10 01:21:38;;;;;;;18.90;12.43;;;;;;;23.42;58.81;101315.38;5030521;28;97252;-70
2023/09/10 01:24:14;;;;;;;19.45;11.80;;;;;;;23.50;58.58;101322.03;5031211;28;96785;-70
2023/09/10 01:26:42;;;;;;;;;;;;;;;23.39;59.27;101321.00;5026502;28;99812;-70
2023/09/10 01:29:12;;;;;;;21.80;12.38;;;;;;;23.55;58.62;101330.59;5030306;28;98910;-70
2023/09/10 01:31:41;;;;;;;14.65;11.35;;;;;;;23.50;58.49;101327.44;5030520;28;96834;-71
2023/09/10 01:34:13;;;;;;;18.10;12.10;;;;;;;23.34;59.19;101322.34;5030888;27;96845;-71
2023/09/10 01:36:43;;;;;;;17.52;12.07;;;;;;;23.42;59.11;101328.88;5035400;28;101370;-71
2023/09/10 01:39:16;;;;;;;16.95;13.13;;;;;;;23.22;60.28;101337.69;5032922;27;101492;-71
2023/09/10 01:41:46;;;;;;;18.92;12.57;;;;;;;23.23;60.50;101336.69;5034243;28;97134;-71
2023/09/10 01:44:14;;;;;;;22.85;13.48;;;;;;;23.31;60.56;101336.06;5033818;28;98162;-71
2023/09/10 01:46:41;;;;;;;16.60;12.55;;;;;;;23.32;60.46;101332.41;5033544;27;101744;-71
2023/09/10 01:49:08;;;;;;;18.40;12.60;;;;;;;23.29;59.93;101330.81;5031027;27;97914;-70
2023/09/10 01:51:34;;;;;;;16.13;12.30;;;;;;;23.01;60.72;101329.44;5031576;27;97177;-70
2023/09/10 01:54:00;;;;;;;27.65;12.75;;;;;;;23.15;60.20;101322.97;5030760;27;96900;-71
2023/09/10 01:56:27;;;;;;;20.38;12.48;;;;;;;23.09;60.48;101331.53;5036389;27;97878;-71
2023/09/10 01:58:55;;;;;;;18.25;12.73;;;;;;;23.05;61.02;101335.44;5042753;27;99256;-71
2023/09/10 02:01:22;;;;;;;18.80;12.60;;;;;;;22.78;62.41;101332.19;5042025;27;96809;-72
2023/09/10 02:03:50;;;;;;;16.83;12.45;;;;;;;23.20;61.08;101333.38;5042127;27;96964;-71
2023/09/10 02:06:17;;;;;;;20.67;12.65;;;;;;;22.97;61.67;101340.59;5028796;27;98984;-70
2023/09/10 02:08:43;;;;;;;21.05;12.63;;;;;;;22.94;62.12;101341.66;5032150;27;98728;-71
2023/09/10 02:11:10;;;;;;;18.08;13.02;;;;;;;22.91;62.11;101338.34;5031382;27;96848;-70
2023/09/10 02:13:36;;;;;;;21.35;12.25;;;;;;;22.77;63.24;101333.19;5032605;27;96970;-70
2023/09/10 02:16:04;;;;;;;17.85;13.25;;;;;;;22.65;63.78;101330.41;5030009;27;98586;-71
2023/09/10 02:18:31;;;;;;;17.13;12.77;;;;;;;22.82;63.52;101328.28;5032201;27;97721;-70
2023/09/10 02:20:58;;;;;;;19.25;12.80;;;;;;;22.63;63.97;101337.78;5030168;27;96812;-71
2023/09/10 02:23:24;;;;;;;16.08;12.68;;;;;;;22.70;63.88;101335.47;5030650;27;97133;-71
2023/09/10 02:25:51;;;;;;;20.42;13.57;;;;;;;22.66;63.70;101326.75;5032502;27;98814;-71
2023/09/10 02:28:23;;;;;;;21.13;13.60;;;;;;;22.70;63.68;101331.91;5032129;27;99063;-71
2023/09/10 02:30:49;;;;;;;15.68;12.35;;;;;;;22.69;63.81;101332.88;5032368;27;96797;-71
2023/09/10 02:33:17;;;;;;;24.13;12.93;;;;;;;22.84;63.16;101331.75;5030815;27;96790;-70
2023/09/10 02:35:44;;;;;;;21.58;13.70;;;;;;;22.75;63.74;101325.22;5030003;27;97638;-71
2023/09/10 02:38:10;;;;;;;16.92;12.75;;;;;;;22.56;64.18;101328.44;5030400;27;99275;-71
2023/09/10 02:40:37;;;;;;;24.15;13.35;;;;;;;22.55;64.15;101324.03;5033106;27;96774;-71
2023/09/10 02:43:03;;;;;;;20.00;13.57;;;;;;;22.57;64.12;101335.53;5032289;27;96970;-70
2023/09/10 02:45:30;;;;;;;17.35;13.15;;;;;;;22.59;64.05;101330.03;5030957;27;98846;-71
2023/09/10 02:47:56;;;;;;;18.67;13.65;;;;;;;22.52;64.32;101334.16;5031920;27;98845;-70
2023/09/10 02:50:24;;;;;;;16.83;13.27;;;;;;;22.53;64.63;101336.72;5029569;27;97866;-71
2023/09/10 02:52:50;;;;;;;20.23;13.38;;;;;;;22.55;64.88;101342.88;5029742;27;97106;-71
2023/09/10 02:55:17;;;;;;;17.75;13.20;;;;;;;22.60;65.20;101342.50;5031936;27;97642;-71
2023/09/10 02:57:43;;;;;;;18.20;13.15;;;;;;;22.55;65.52;101339.31;5031081;27;98781;-70
2023/09/10 03:00:11;;;;;;;18.52;13.93;;;;;;;22.54;65.31;101341.16;5031958;27;96828;-70
2023/09/10 03:02:38;;;;;;;18.73;14.30;;;;;;;22.37;65.58;101340.72;5031498;27;96957;-71
2023/09/10 03:05:05;;;;;;;19.45;13.30;;;;;;;22.39;65.00;101336.91;5031388;27;98164;-71
2023/09/10 03:07:34;;;;;;;20.83;13.25;;;;;;;22.39;65.30;101336.91;5029555;27;98782;-71
2023/09/10 03:10:00;;;;;;;19.35;13.90;;;;;;;22.54;64.75;101333.06;5030977;27;96774;-71
2023/09/10 03:12:28;;;;;;;20.27;13.73;;;;;;;22.37;65.44;101330.81;5033557;27;96853;-71
2023/09/10 03:14:55;;;;;;;17.70;13.50;;;;;;;22.24;66.64;101335.41;5031622;27;99307;-71
2023/09/10 03:17:22;;;;;;;21.40;12.82;;;;;;;22.45;65.99;101328.38;5031537;27;100520;-70
2023/09/10 03:19:48;;;;;;;19.15;13.52;;;;;;;22.49;65.79;101335.25;5032059;27;96864;-70
2023/09/10 03:22:15;;;;;;;20.50;14.10;;;;;;;22.44;65.46;101326.69;5032373;27;96855;-71
2023/09/10 03:24:43;;;;;;;18.85;13.50;;;;;;;22.51;64.69;101333.28;5032032;27;98995;-71
2023/09/10 03:27:09;;;;;;;20.50;14.18;;;;;;;22.46;64.44;101330.09;5027500;27;99249;-71
2023/09/10 03:29:36;;;;;;;23.13;14.70;;;;;;;22.24;65.83;101328.19;5031756;27;96858;-71
2023/09/10 03:32:04;;;;;;;19.58;13.95;;;;;;;22.30;65.72;101328.69;5032570;27;97033;-70
2023/09/10 03:34:31;;;;;;;20.20;14.57;;;;;;;22.39;65.46;101327.97;5031209;27;99065;-70
2023/09/10 03:36:57;;;;;;;19.13;13.55;;;;;;;22.34;65.82;101331.03;5025989;27;99306;-71
2023/09/10 03:39:24;;;;;;;21.02;14.07;;;;;;;22.21;66.87;101327.53;5028818;27;96978;-71
2023/09/10 03:41:52;;;;;;;20.48;14.65;;;;;;;22.24;67.11;101324.63;5031117;27;97259;-71
2023/09/10 03:44:18;;;;;;;22.17;13.95;;;;;;;22.14;67.21;101318.22;5029241;27;101762;-71
2023/09/10 03:46:45;;;;;;;20.38;14.18;;;;;;;22.10;67.52;101325.66;5028489;27;99992;-71
2023/09/10 03:49:11;;;;;;;20.00;14.00;;;;;;;21.99;68.23;101324.75;5030758;27;97364;-71
2023/09/10 03:51:39;;;;;;;21.15;14.68;;;;;;;21.98;68.02;101323.03;5030391;27;99415;-72
2023/09/10 03:54:07;;;;;;;19.67;13.50;;;;;;;22.03;67.72;101310.09;5031182;27;99134;-71
2023/09/10 03:56:34;;;;;;;21.20;14.30;;;;;;;22.13;66.97;101317.34;5029559;27;99223;-70
2023/09/10 03:59:01;;;;;;;20.75;14.25;;;;;;;22.23;66.74;101318.38;5038726;27;96709;-70
2023/09/10 04:01:29;;;;;;;20.45;13.85;;;;;;;22.21;66.51;101308.69;5029276;27;96985;-71
2023/09/10 04:03:55;;;;;;;22.30;14.98;;;;;;;22.32;65.91;101311.44;5025077;27;98886;-70
2023/09/10 04:06:22;;;;;;;19.98;15.18;;;;;;;22.26;66.02;101320.84;5029785;27;98703;-70
2023/09/10 04:08:49;;;;;;;21.02;14.70;;;;;;;22.18;66.60;101314.34;5025983;27;96839;-70
2023/09/10 04:11:15;;;;;;;23.23;15.55;;;;;;;22.19;66.01;101321.41;5024723;27;96964;-71
2023/09/10 04:13:41;;;;;;;19.40;14.32;;;;;;;22.20;65.71;101320.44;5028344;27;98975;-71
2023/09/10 04:16:09;;;;;;;23.25;14.75;;;;;;;22.05;66.52;101319.78;5029366;27;98938;-71
2023/09/10 04:18:36;;;;;;;18.10;14.50;;;;;;;21.99;67.68;101327.44;5021795;27;96880;-71
2023/09/10 04:21:03;;;;;;;18.75;14.45;;;;;;;22.04;67.77;101327.94;5030963;27;97747;-71
2023/09/10 04:23:30;;;;;;;20.60;14.70;;;;;;;21.97;68.18;101332.06;5028814;27;99146;-71
2023/09/10 04:25:56;;;;;;;21.85;15.32;;;;;;;21.85;68.25;101331.97;5030840;27;98877;-70
2023/09/10 04:28:23;;;;;;;20.98;15.07;;;;;;;21.93;68.36;101325.13;5026983;27;99577;-70
2023/09/10 04:30:49;;;;;;;21.05;15.35;;;;;;;21.94;68.30;101326.84;5034049;27;96798;-71
2023/09/10 04:33:17;;;;;;;21.98;14.95;;;;;;;21.82;68.73;101332.19;5030759;27;98976;-70
2023/09/10 04:35:49;;;;;;;22.00;15.23;;;;;;;21.76;69.06;101329.94;5031617;27;98748;-72
2023/09/10 04:38:15;;;;;;;17.63;13.52;;;;;;;21.68;68.93;101332.31;5028129;27;96837;-71
2023/09/10 04:40:42;;;;;;;17.67;13.60;;;;;;;21.87;68.35;101338.06;5030247;27;97877;-70
2023/09/10 04:43:08;;;;;;;18.05;14.02;;;;;;;21.88;68.12;101339.81;5030078;27;97710;-71
2023/09/10 04:45:36;;;;;;;20.90;14.65;;;;;;;21.95;67.58;101334.81;5029797;27;99240;-70
2023/09/10 04:48:04;;;;;;;19.33;14.40;;;;;;;21.86;68.08;101338.19;5029470;27;98189;-71
2023/09/10 04:50:32;;;;;;;20.80;14.95;;;;;;;21.93;68.23;101346.66;5029999;27;97021;-71
2023/09/10 04:52:58;;;;;;;22.25;15.07;;;;;;;21.80;68.69;101350.25;5029594;27;99033;-70
2023/09/10 04:55:24;;;;;;;19.73;13.77;;;;;;;21.91;68.30;101349.50;5030339;27;98145;-72
2023/09/10 04:57:51;;;;;;;18.98;14.10;;;;;;;21.96;67.81;101349.19;5029502;27;99140;-70
2023/09/10 05:00:17;;;;;;;20.35;14.88;;;;;;;21.91;68.45;101354.88;5027607;27;97601;-70
2023/09/10 05:02:44;;;;;;;20.73;14.57;;;;;;;21.82;68.36;101352.84;5030524;27;99241;-70
2023/09/10 05:05:10;;;;;;;20.13;14.35;;;;;;;21.93;68.17;101357.44;5029799;27;97719;-71
2023/09/10 05:07:38;;;;;;;21.67;15.10;;;;;;;22.08;67.14;101357.19;5030410;27;96800;-71
2023/09/10 05:10:05;;;;;;;19.35;14.43;;;;;;;22.06;67.21;101364.53;5032049;27;96935;-71
2023/09/10 05:12:31;;;;;;;23.00;14.82;;;;;;;22.00;67.58;101373.03;5032939;27;99213;-71
2023/09/10 05:14:58;;;;;;;17.08;14.05;;;;;;;21.90;67.89;101363.03;5033657;27;98715;-71
2023/09/10 05:17:25;;;;;;;20.77;14.05;;;;;;;22.27;66.41;101359.38;5033418;27;99156;-71
2023/09/10 05:19:51;;;;;;;20.25;13.75;;;;;;;22.21;66.33;101365.22;5033634;27;97413;-72
2023/09/10 05:22:17;;;;;;;24.05;14.93;;;;;;;22.29;66.37;101362.84;5033902;27;101600;-71
2023/09/10 05:24:45;;;;;;;24.73;13.70;;;;;;;22.58;65.10;101361.47;5025931;27;100654;-71
2023/09/10 05:27:12;;;;;;;28.30;15.40;;;;;;;22.52;65.23;101361.94;5034143;27;96887;-71
2023/09/10 05:29:41;;;;;;;22.55;14.73;;;;;;;22.70;64.51;101367.78;5032360;27;97017;-71
2023/09/10 05:32:08;;;;;;;22.50;14.35;;;;;;;22.71;64.45;101361.41;5033406;27;98989;-70
2023/09/10 05:34:36;;;;;;;20.50;14.55;;;;;;;22.72;64.01;101368.50;5031329;27;98995;-70
2023/09/10 05:37:03;;;;;;;20.88;13.88;;;;;;;23.00;62.97;101359.19;5033046;27;97192;-70
2023/09/10 05:39:29;;;;;;;21.10;14.07;;;;;;;22.92;62.66;101357.09;5033378;27;96811;-71
2023/09/10 05:41:57;;;;;;;17.65;13.80;;;;;;;23.12;61.95;101363.63;5033960;27;99161;-71
2023/09/10 05:44:24;;;;;;;18.50;14.05;;;;;;;23.12;61.88;101366.31;5031816;27;98153;-71
2023/09/10 05:46:50;;;;;;;24.20;14.20;;;;;;;23.16;61.26;101361.56;5033933;27;96913;-71
2023/09/10 05:49:17;;;;;;;20.80;14.65;;;;;;;23.33;60.02;101364.63;5032389;27;97392;-71
2023/09/10 05:51:43;;;;;;;20.70;14.80;;;;;;;23.41;59.51;101362.19;5031820;27;99226;-71
2023/09/10 05:54:10;;;;;;;20.33;14.00;;;;;;;23.68;58.75;101369.09;5033197;27;98859;-72
2023/09/10 05:56:36;;;;;;;21.92;14.48;;;;;;;23.70;58.41;101367.13;5032463;27;96812;-72
2023/09/10 05:59:04;;;;;;;17.13;13.02;;;;;;;23.92;57.53;101368.94;5033708;27;96978;-70
2023/09/10 06:01:31;;;;;;;23.42;14.82;;;;;;;24.02;57.22;101373.47;5032210;27;97903;-71
2023/09/10 06:03:59;;;;;;;22.60;14.77;;;;;;;24.01;57.32;101376.31;5033126;27;98723;-70
2023/09/10 06:06:27;;;;;;;19.10;14.18;;;;;;;24.17;56.55;101372.19;5032895;27;97423;-72
2023/09/10 06:08:54;;;;;;;24.17;14.43;;;;;;;24.04;56.70;101376.88;5031829;27;97078;-71
2023/09/10 06:11:20;;;;;;;21.23;15.02;;;;;;;24.22;55.64;101379.94;5033152;27;98892;-71
2023/09/10 06:13:47;;;;;;;19.90;15.52;;;;;;;24.52;55.02;101376.53;5031362;27;97741;-71
2023/09/10 06:16:14;;;;;;;20.17;14.23;;;;;;;24.29;55.73;101375.75;5032810;27;97775;-73
2023/09/10 06:18:41;;;;;;;23.75;14.27;;;;;;;24.59;54.53;101373.19;5024254;27;96907;-71
2023/09/10 06:21:07;;;;;;;21.95;14.93;;;;;;;24.78;53.84;101375.19;5032468;27;98191;-72
2023/09/10 06:23:34;;;;;;;24.08;15.00;;;;;;;24.79;54.01;101379.63;5033810;27;99259;-71
2023/09/10 06:26:00;;;;;;;21.70;14.60;;;;;;;25.08;53.23;101373.56;5032064;27;96673;-70
2023/09/10 06:28:27;;;;;;;21.05;14.43;;;;;;;25.15;52.37;101374.75;5032202;27;97836;-71
2023/09/10 06:30:53;;;;;;;19.67;13.63;;;;;;;25.36;52.49;101375.59;5032913;27;99186;-71
2023/09/10 06:33:21;;;;;;;18.25;14.70;;;;;;;25.38;51.85;101371.78;5032362;27;99326;-71
2023/09/10 06:35:47;;;;;;;18.60;14.60;;;;;;;25.63;51.69;101375.91;5030351;27;96906;-71
2023/09/10 06:38:14;;;;;;;18.55;14.00;;;;;;;25.53;51.30;101371.44;5033005;27;96902;-70
2023/09/10 06:40:40;;;;;;;17.58;13.77;;;;;;;25.57;51.05;101378.28;5031357;27;98924;-70
2023/09/10 06:43:08;;;;;;;20.05;13.80;;;;;;;25.95;49.89;101377.56;5031795;27;97566;-71
2023/09/10 06:45:35;;;;;;;21.70;14.98;;;;;;;25.90;50.11;101382.56;5030479;27;97864;-70
2023/09/10 06:48:01;;;;;;;20.13;13.80;;;;;;;25.73;50.25;101374.09;5032519;27;97018;-71
2023/09/10 06:50:29;;;;;;;17.45;14.05;;;;;;;25.79;50.32;101376.28;5027778;27;99178;-70
2023/09/10 06:52:55;;;;;;;20.67;14.57;;;;;;;26.06;49.70;101374.75;5031884;27;101929;-70
2023/09/10 06:55:23;;;;;;;18.65;13.80;;;;;;;26.42;49.04;101384.97;5030693;27;96791;-70
2023/09/10 06:57:50;;;;;;;20.67;14.02;;;;;;;26.82;47.84;101381.28;5032462;27;96839;-70
2023/09/10 07:00:17;;;;;;;18.38;13.63;;;;;;;26.88;47.54;101381.56;5031351;27;99216;-72
2023/09/10 07:02:43;;;;;;;17.17;13.82;;;;;;;27.19;46.88;101378.66;5033045;27;99150;-71
2023/09/10 07:05:10;;;;;;;18.05;13.75;;;;;;;26.72;47.66;101383.97;5031766;27;97106;-71
2023/09/10 07:07:38;;;;;;;19.42;13.77;;;;;;;26.96;47.39;101384.44;5031339;27;96809;-71
2023/09/10 07:10:05;;;;;;;18.30;13.88;;;;;;;27.25;47.11;101387.06;5031160;27;99473;-70
2023/09/10 07:12:31;;;;;;;20.02;14.27;;;;;;;27.56;46.70;101390.47;5030647;27;101383;-72
2023/09/10 07:14:58;;;;;;;20.52;14.05;;;;;;;27.11;47.35;101384.81;5025864;27;96960;-70
2023/09/10 07:17:24;;;;;;;20.90;13.20;;;;;;;27.29;46.53;101382.22;5031458;27;97132;-72
2023/09/10 07:19:50;;;;;;;17.50;12.82;;;;;;;27.43;46.90;101392.63;5031384;27;98992;-71
2023/09/10 07:22:17;;;;;;;17.90;12.52;;;;;;;27.84;45.35;101393.19;5029831;27;99054;-71
2023/09/10 07:24:45;;;;;;;14.90;12.18;;;;;;;27.57;45.87;101389.44;5031838;27;96699;-72
2023/09/10 07:27:11;;;;;;;18.15;12.23;;;;;;;27.80;45.24;101400.78;5030036;27;98893;-70
2023/09/10 07:29:37;;;;;;;20.17;12.95;;;;;;;27.91;44.69;101389.72;5028726;27;99356;-70
2023/09/10 07:32:05;;;;;;;17.98;13.50;;;;;;;27.91;45.00;101392.44;5032279;27;98712;-72
2023/09/10 07:34:31;;;;;;;18.65;12.35;;;;;;;28.06;43.82;101396.34;5028130;27;97029;-71
2023/09/10 07:36:57;;;;;;;17.85;12.30;;;;;;;28.23;43.34;101396.56;5031648;27;96940;-71
2023/09/10 07:39:25;;;;;;;17.90;12.18;;;;;;;28.30;43.60;101400.38;5029553;27;99157;-70
2023/09/10 07:41:53;;;;;;;15.57;12.05;;;;;;;28.17;42.92;101397.16;5031030;27;98807;-70
2023/09/10 07:44:19;;;;;;;18.08;12.25;;;;;;;28.72;41.64;101403.38;5031255;27;97009;-70
2023/09/10 07:46:45;;;;;;;13.68;11.68;;;;;;;28.75;40.60;101401.19;5030297;27;96947;-70
2023/09/10 07:49:12;;;;;;;18.35;11.88;;;;;;;29.08;40.36;101404.22;5025966;27;98926;-71
2023/09/10 07:51:39;;;;;;;14.48;9.90;;;;;;;29.09;39.45;101411.34;5025350;27;99161;-71
2023/09/10 07:54:06;;;;;;;14.95;10.05;;;;;;;29.26;38.84;101402.31;5027440;27;96878;-72
2023/09/10 07:56:32;;;;;;;13.82;9.80;;;;;;;29.13;38.29;101407.31;5030892;27;96830;-71
2023/09/10 07:59:00;;;;;;;16.50;10.77;;;;;;;29.13;40.13;101400.00;5029803;27;97720;-70
2023/09/10 08:01:27;;;;;;;20.83;15.18;;;;;;;29.60;38.86;101400.50;5028352;27;98944;-71
2023/09/10 08:03:53;;;;;;;15.90;11.57;;;;;;;29.77;39.07;101398.72;5032661;27;96837;-71
2023/09/10 08:06:20;;;;;;;8.77;7.88;;;;;;;30.06;36.78;101398.38;5031388;27;97216;-70
2023/09/10 08:08:46;;;;;;;11.65;8.25;;;;;;;30.53;35.27;101397.81;5030472;27;99046;-71
2023/09/10 08:11:13;;;;;;;12.27;8.55;;;;;;;30.86;34.67;101392.22;5031548;27;97755;-70
2023/09/10 08:13:43;;;;;;;12.20;7.47;;;;;;;30.55;34.08;101390.31;5032199;27;96902;-70
2023/09/10 08:16:13;;;;;;;10.95;7.63;;;;;;;30.82;33.73;101392.72;5034283;27;97053;-71
2023/09/10 08:18:39;;;;;;;15.98;10.85;;;;;;;30.50;34.80;101396.28;5030070;27;99232;-71
2023/09/10 08:21:06;;;;;;;22.67;13.63;;;;;;;30.59;35.05;101400.72;5028118;28;99769;-71
2023/09/10 08:23:32;;;;;;;13.40;7.05;;;;;;;30.71;33.63;101401.25;5031778;28;97004;-70
2023/09/10 08:25:59;;;;;;;13.55;8.90;;;;;;;30.54;34.37;101394.91;5026742;27;97740;-71
2023/09/10 08:28:25;;;;;;;12.93;7.43;;;;;;;30.74;33.58;101407.22;5029789;27;97818;-71
2023/09/10 08:30:53;;;;;;;13.32;8.05;;;;;;;30.67;33.67;101394.41;5027761;28;97830;-71
2023/09/10 08:33:24;;;;;;;11.63;7.60;;;;;;;30.49;34.00;101397.31;5029987;28;96852;-70
2023/09/10 08:35:52;;;;;;;12.55;7.35;;;;;;;30.72;33.34;101397.50;5029456;28;97024;-69
2023/09/10 08:38:18;;;;;;;8.98;6.72;;;;;;;30.75;33.55;101395.28;5030653;28;99126;-71
2023/09/10 08:41:01;;;;;;;12.43;7.30;;;;;;;30.99;32.75;101388.97;5029512;27;98863;-70
2023/09/10 08:43:37;;;;;;;12.45;7.00;;;;;;;30.91;33.67;101388.13;5027380;27;96855;-71
2023/09/10 08:46:07;;;;;;;10.52;7.45;;;;;;;31.16;32.56;101389.84;5031797;27;97894;-70
2023/09/10 08:48:39;;;;;;;8.65;7.13;;;;;;;31.24;32.55;101387.94;5030879;28;100990;-71
2023/09/10 08:51:06;;;;;;;9.32;6.55;;;;;;;31.27;32.07;101384.88;5029662;27;98832;-71
2023/09/10 08:53:34;;;;;;;7.65;6.07;;;;;;;31.40;31.73;101381.59;5031041;27;96662;-74
2023/09/10 08:56:02;;;;;;;9.23;6.45;;;;;;;31.38;31.93;101391.00;5030358;27;96975;-70
2023/09/10 08:58:31;;;;;;;9.23;6.95;;;;;;;31.65;31.51;101387.88;5028692;27;101069;-71
2023/09/10 09:00:59;;;;;;;9.57;6.50;;;;;;;31.75;30.96;101388.53;5031143;27;97724;-71
2023/09/10 09:03:25;;;;;;;7.32;6.18;;;;;;;31.63;31.65;101384.50;5027926;27;97745;-72
2023/09/10 09:05:57;;;;;;;9.60;6.30;;;;;;;31.78;31.44;101395.50;5028497;27;97154;-71
2023/09/10 09:08:30;;;;;;;7.88;5.80;;;;;;;31.64;31.29;101383.44;5026828;28;97881;-71
2023/09/10 09:10:58;;;;;;;8.52;6.10;;;;;;;31.86;31.47;101381.81;5025509;28;101062;-73
2023/09/10 09:13:25;;;;;;;7.25;6.15;;;;;;;31.51;31.77;101389.41;5029259;27;96896;-71
2023/09/10 09:15:52;;;;;;;7.47;5.70;;;;;;;31.56;30.70;101389.78;5029248;28;97393;-70
2023/09/10 09:18:21;;;;;;;9.68;5.97;;;;;;;31.87;30.71;101389.00;5023827;28;99390;-71
2023/09/10 09:20:51;;;;;;;8.95;5.65;;;;;;;31.63;30.51;101388.06;5029380;28;98191;-70
2023/09/10 09:23:23;;;;;;;8.75;5.47;;;;;;;31.41;31.24;101377.84;5030807;28;96799;-71
2023/09/10 09:25:51;;;;;;;8.68;5.93;;;;;;;31.73;30.79;101384.25;5030382;28;100311;-72
2023/09/10 09:28:18;;;;;;;7.28;5.97;;;;;;;31.99;30.22;101382.09;5029139;28;98879;-70
2023/09/10 09:30:45;;;;;;;7.00;6.20;;;;;;;32.03;29.86;101384.28;5028966;28;98863;-70
2023/09/10 09:33:11;;;;;;;9.25;5.82;;;;;;;31.96;30.52;101383.34;5031152;28;96848;-71
2023/09/10 09:35:38;;;;;;;9.60;5.85;;;;;;;32.01;30.17;101374.59;5030107;28;96993;-71
2023/09/10 09:38:10;;;;;;;6.90;5.65;;;;;;;31.97;30.24;101374.06;5030083;28;99166;-70
2023/09/10 09:40:38;;;;;;;11.60;5.85;;;;;;;32.01;29.76;101378.16;5031527;27;99075;-71
2023/09/10 09:43:08;;;;;;;12.77;6.53;;;;;;;31.90;29.65;101377.72;5030998;27;96842;-70
2023/09/10 09:45:35;;;;;;;7.25;6.35;;;;;;;32.17;29.70;101379.97;5029634;27;96992;-70
2023/09/10 09:48:02;;;;;;;7.43;6.25;;;;;;;32.37;29.75;101374.91;5028559;28;102252;-73
2023/09/10 09:50:28;;;;;;;7.57;5.75;;;;;;;32.22;29.40;101376.72;5025375;28;96805;-71
2023/09/10 09:52:56;;;;;;;27.27;19.88;;;;;;;32.34;28.84;101372.53;5024361;27;98680;-71
2023/09/10 09:55:23;;;;;;;6.32;5.15;;;;;;;32.35;28.31;101371.53;5026521;27;97149;-71
2023/09/10 09:57:51;;;;;;;7.80;5.28;;;;;;;32.38;28.51;101377.47;5031873;27;99037;-72
2023/09/10 10:00:18;;;;;;;7.93;5.70;;;;;;;32.42;28.07;101375.22;5034458;27;98736;-72
2023/09/10 10:02:45;;;;;;;15.57;5.78;;;;;;;32.26;27.67;101375.31;5029253;27;97384;-71
2023/09/10 10:05:12;;;;;;;7.38;5.03;;;;;;;32.26;28.17;101375.31;5033355;27;96977;-71
2023/09/10 10:07:41;;;;;;;8.43;5.15;;;;;;;32.41;27.44;101373.53;5025314;27;102365;-71
2023/09/10 10:10:09;;;;;;;7.07;4.63;;;;;;;32.25;27.38;101370.88;5032651;27;97563;-71
2023/09/10 10:12:37;;;;;;;5.25;4.75;;;;;;;32.24;27.08;101369.16;5031174;27;97007;-71
2023/09/10 10:15:08;;;;;;;5.63;4.97;;;;;;;32.33;27.15;101373.56;5030200;27;97083;-72
2023/09/10 10:17:34;;;;;;;6.93;4.40;;;;;;;32.61;25.75;101366.53;5027213;27;98840;-72
2023/09/10 10:20:04;;;;;;;9.57;5.75;;;;;;;32.52;26.45;101356.69;5033372;28;99177;-70
2023/09/10 10:22:32;;;;;;;9.63;5.60;;;;;;;32.63;26.44;101367.19;5032951;27;97205;-72
2023/09/10 10:25:00;;;;;;;5.75;4.72;;;;;;;32.44;26.64;101364.94;5032711;27;96953;-72
2023/09/10 10:27:28;;;;;;;7.45;4.82;;;;;;;32.59;27.00;101363.13;5031162;27;98945;-71
2023/09/10 10:29:54;;;;;;;7.57;4.75;;;;;;;32.47;27.20;101364.59;5031856;27;99143;-71
2023/09/10 10:32:27;;;;;;;5.22;4.72;;;;;;;32.68;26.70;101359.34;5032735;28;96848;-71
2023/09/10 10:34:58;;;;;;;7.93;4.57;;;;;;;32.69;26.41;101352.81;5032183;27;96903;-71
2023/09/10 10:37:33;;;;;;;6.78;4.70;;;;;;;32.70;26.93;101350.91;5030428;27;99033;-71
2023/09/10 10:40:06;;;;;;;5.23;4.50;;;;;;;32.74;26.28;101352.28;5025679;27;98744;-70
2023/09/10 10:42:38;;;;;;;9.65;4.97;;;;;;;32.73;26.40;101353.31;5032600;28;98528;-71
2023/09/10 10:45:06;;;;;;;5.43;4.57;;;;;;;32.84;26.63;101350.97;5031533;27;97028;-71
2023/09/10 10:47:38;;;;;;;5.90;4.68;;;;;;;32.56;25.69;101349.78;5028806;28;100529;-71
2023/09/10 10:50:08;;;;;;;6.20;4.43;;;;;;;32.80;26.28;101348.78;5030217;28;97907;-71
2023/09/10 10:52:39;;;;;;;5.10;4.28;;;;;;;32.74;25.41;101350.38;5033240;28;96884;-71
2023/09/10 10:55:07;;;;;;;6.50;4.30;;;;;;;32.69;25.77;101341.84;5030339;27;96786;-71
2023/09/10 10:57:34;;;;;;;5.03;3.85;;;;;;;32.81;24.46;101340.41;5032572;28;97834;-75
2023/09/10 11:00:03;;;;;;;5.18;4.20;;;;;;;32.70;25.20;101343.56;5032957;28;101299;-75
2023/09/10 11:02:30;;;;;;;7.07;4.10;;;;;;;32.56;25.08;101340.78;5032845;28;96941;-75
2023/09/10 11:05:01;;;;;;;6.70;4.07;;;;;;;32.64;25.47;101343.41;5031370;27;98294;-75
2023/09/10 11:07:29;;;;;;;7.40;4.20;;;;;;;32.64;24.98;101333.31;5029464;27;101142;-76
2023/09/10 11:09:58;;;;;;;5.25;4.28;;;;;;;32.62;25.08;101335.41;5032504;28;100679;-73
2023/09/10 11:12:25;;;;;;;6.53;4.32;;;;;;;32.41;25.66;101335.22;5030801;27;96907;-75